Time;durP1;ratioP1;P1;durP2;ratioP2;P2;SDS_P1;SDS_P2;PMS_P1;PMS_P2;Temp;Humidity;BMP_temperature;BMP_pressure;BME280_temperature;BME280_humidity;BME280_pressure;Samples;Min_cycle;Max_cycle;Signal;HPM_P1;HPM_P2
2021/01/23 00:01:10;;;;;;;28.90;5.33;;;2.00;99.70;;;;;;4991186;28;20443;-70
2021/01/23 00:03:36;;;;;;;4.83;3.23;;;2.10;99.70;;;;;;4990234;28;20829;-69
2021/01/23 00:06:02;;;;;;;5.77;3.60;;;2.00;99.70;;;;;;4990850;28;20453;-70
2021/01/23 00:08:29;;;;;;;4.17;3.10;;;2.20;99.70;;;;;;4989985;28;20443;-69
2021/01/23 00:10:55;;;;;;;6.33;3.73;;;2.10;99.70;;;;;;4990632;28;21038;-69
2021/01/23 00:13:21;;;;;;;4.53;3.30;;;1.90;99.70;;;;;;4991269;28;20447;-69
2021/01/23 00:15:47;;;;;;;4.60;3.10;;;1.90;99.70;;;;;;4993732;28;20819;-69
2021/01/23 00:18:14;;;;;;;5.40;3.10;;;1.90;99.70;;;;;;4990518;28;20470;-69
2021/01/23 00:20:41;;;;;;;20.20;4.33;;;1.90;99.70;;;;;;4990608;28;20439;-69
2021/01/23 00:23:07;;;;;;;5.00;3.30;;;1.80;99.70;;;;;;4990977;28;20458;-69
2021/01/23 00:25:33;;;;;;;32.10;4.60;;;1.90;99.70;;;;;;4990568;28;20611;-69
2021/01/23 00:27:59;;;;;;;35.70;5.00;;;1.90;99.70;;;;;;4990323;28;20462;-69
2021/01/23 00:30:25;;;;;;;14.30;3.70;;;1.80;99.70;;;;;;4990461;28;20487;-69
2021/01/23 00:32:51;;;;;;;20.63;3.80;;;1.70;99.70;;;;;;4990626;28;20508;-69
2021/01/23 00:35:18;;;;;;;42.67;5.73;;;1.80;99.70;;;;;;4990462;28;20442;-69
2021/01/23 00:37:47;;;;;;;25.60;4.60;;;1.60;99.70;;;;;;4989955;28;20473;-71
2021/01/23 00:40:14;;;;;;;22.63;3.93;;;1.50;99.70;;;;;;4990390;28;20529;-70
2021/01/23 00:42:40;;;;;;;26.60;4.70;;;1.60;99.70;;;;;;4990423;28;20448;-72
2021/01/23 00:45:07;;;;;;;26.63;4.67;;;1.60;99.70;;;;;;4990095;28;20446;-71
2021/01/23 00:47:33;;;;;;;6.40;3.70;;;1.70;99.70;;;;;;4989817;28;20481;-70
2021/01/23 00:50:00;;;;;;;36.07;4.97;;;1.70;99.70;;;;;;4989962;28;20447;-70
2021/01/23 00:52:27;;;;;;;7.90;3.70;;;1.60;99.70;;;;;;4990415;28;20447;-69
2021/01/23 00:54:53;;;;;;;7.50;3.57;;;1.70;99.70;;;;;;4990399;28;20453;-69
2021/01/23 00:57:19;;;;;;;7.97;4.00;;;1.60;99.70;;;;;;4989616;28;20463;-72
2021/01/23 00:59:45;;;;;;;5.60;3.63;;;1.70;99.70;;;;;;4990614;28;20450;-71
2021/01/23 01:02:11;;;;;;;6.57;4.00;;;1.70;99.70;;;;;;4989566;28;20454;-70
2021/01/23 01:04:37;;;;;;;7.20;4.20;;;1.60;99.70;;;;;;4990532;28;20453;-70
2021/01/23 01:07:04;;;;;;;9.63;4.87;;;1.50;99.70;;;;;;4989676;28;20477;-69
2021/01/23 01:09:31;;;;;;;8.17;4.83;;;1.60;99.70;;;;;;4990473;28;20450;-70
2021/01/23 01:11:57;;;;;;;10.80;5.40;;;1.60;99.70;;;;;;4989811;28;20486;-70
2021/01/23 01:14:23;;;;;;;10.30;5.17;;;2.10;99.70;;;;;;4990075;28;20729;-69
2021/01/23 01:16:50;;;;;;;9.53;4.93;;;1.80;99.70;;;;;;4989459;28;20463;-72
2021/01/23 01:19:16;;;;;;;10.60;5.30;;;1.60;99.70;;;;;;4989997;28;20446;-70
2021/01/23 01:21:42;;;;;;;10.27;4.97;;;1.70;99.70;;;;;;4993360;28;20947;-69
2021/01/23 01:24:09;;;;;;;11.00;5.40;;;1.80;99.70;;;;;;4994049;28;20987;-70
2021/01/23 01:26:36;;;;;;;10.33;4.50;;;1.80;99.70;;;;;;4993839;28;20472;-69
2021/01/23 01:29:02;;;;;;;7.30;4.20;;;1.80;99.70;;;;;;4993497;28;20449;-70
2021/01/23 01:31:29;;;;;;;9.13;4.60;;;1.80;99.70;;;;;;4993760;28;20550;-70
2021/01/23 01:33:55;;;;;;;9.73;5.03;;;1.80;99.70;;;;;;4993638;28;20452;-73
2021/01/23 01:36:21;;;;;;;8.40;5.10;;;1.80;99.70;;;;;;4993920;28;20762;-71
2021/01/23 01:38:47;;;;;;;8.83;4.97;;;1.90;99.70;;;;;;4993188;28;20550;-70
2021/01/23 01:41:15;;;;;;;9.20;5.20;;;1.80;99.70;;;;;;4993700;28;20443;-70
2021/01/23 01:43:44;;;;;;;10.67;5.43;;;1.90;99.70;;;;;;4993461;28;20453;-70
2021/01/23 01:46:13;;;;;;;11.60;6.27;;;1.70;99.70;;;;;;4993721;28;20449;-70
2021/01/23 01:48:39;;;;;;;10.97;5.73;;;1.80;99.70;;;;;;4993051;28;20837;-70
2021/01/23 01:51:05;;;;;;;17.67;5.87;;;1.90;99.70;;;;;;4993662;28;20478;-72
2021/01/23 01:53:32;;;;;;;13.90;5.90;;;1.90;99.70;;;;;;4993482;28;20457;-70
2021/01/23 01:55:59;;;;;;;31.90;11.40;;;2.00;99.70;;;;;;4993717;28;20516;-70
2021/01/23 01:58:26;;;;;;;11.40;5.83;;;1.90;99.70;;;;;;4992854;28;20743;-70
2021/01/23 02:00:54;;;;;;;9.70;5.17;;;2.00;99.70;;;;;;4993433;28;20520;-69
2021/01/23 02:03:42;;;;;;;9.23;5.30;;;2.00;99.70;;;;;;4992560;28;20919;-70
2021/01/23 02:06:39;;;;;;;14.57;8.23;;;2.00;99.70;;;;;;4993172;28;20454;-70
2021/01/23 02:09:11;;;;;;;21.83;14.77;;;1.90;99.70;;;;;;4992484;28;20449;-70
2021/01/23 02:11:48;;;;;;;13.20;7.63;;;1.80;99.70;;;;;;4993149;28;20528;-71
2021/01/23 02:14:23;;;;;;;11.60;6.20;;;1.80;99.70;;;;;;4992773;28;20453;-70
2021/01/23 02:16:53;;;;;;;13.10;6.07;;;1.80;99.70;;;;;;4992675;28;20502;-70
2021/01/23 02:19:32;;;;;;;13.27;6.77;;;1.90;99.70;;;;;;4992769;28;20446;-71
2021/01/23 02:22:29;;;;;;;11.73;6.00;;;1.80;99.70;;;;;;4992964;28;20465;-70
2021/01/23 02:24:56;;;;;;;12.67;7.07;;;1.90;99.70;;;;;;4992115;28;20454;-72
2021/01/23 02:27:41;;;;;;;13.90;7.20;;;1.90;99.70;;;;;;4992339;28;20473;-72
2021/01/23 02:30:17;;;;;;;16.67;7.70;;;1.80;99.70;;;;;;4992542;28;20970;-69
2021/01/23 02:32:47;;;;;;;13.43;7.67;;;1.80;99.70;;;;;;4991748;28;20978;-70
2021/01/23 02:35:15;;;;;;;13.90;7.23;;;1.70;99.70;;;;;;4992581;28;20493;-69
2021/01/23 02:37:42;;;;;;;13.10;7.13;;;1.90;99.70;;;;;;4992145;28;20479;-69
2021/01/23 02:40:10;;;;;;;10.10;5.83;;;1.90;99.70;;;;;;4992663;28;20454;-70
2021/01/23 02:42:36;;;;;;;9.80;6.07;;;1.90;99.70;;;;;;4992491;28;20472;-70
2021/01/23 02:45:06;;;;;;;7.27;4.03;;;1.90;99.70;;;;;;4992669;28;20446;-71
2021/01/23 02:47:32;;;;;;;7.50;4.77;;;2.10;99.70;;;;;;4991817;28;21033;-70
2021/01/23 02:49:59;;;;;;;8.20;4.70;;;2.00;99.70;;;;;;4992702;28;20446;-70
2021/01/23 02:52:35;;;;;;;5.97;3.80;;;2.10;99.70;;;;;;4992244;28;20447;-69
2021/01/23 02:55:06;;;;;;;5.90;3.63;;;2.10;99.70;;;;;;4992630;28;20469;-70
2021/01/23 02:57:33;;;;;;;6.70;3.73;;;2.10;99.70;;;;;;4991803;28;20753;-71
2021/01/23 03:00:04;;;;;;;6.07;3.40;;;2.20;99.70;;;;;;4992354;28;20447;-70
2021/01/23 03:02:33;;;;;;;4.50;3.10;;;2.30;99.70;;;;;;4991289;28;20442;-71
2021/01/23 03:05:01;;;;;;;4.70;2.93;;;2.00;99.70;;;;;;4992137;28;20450;-71
2021/01/23 03:07:27;;;;;;;3.00;2.50;;;2.20;99.70;;;;;;4991760;28;20841;-69
2021/01/23 03:09:53;;;;;;;3.60;2.70;;;2.40;99.70;;;;;;4992286;28;20449;-69
2021/01/23 03:12:20;;;;;;;3.10;2.23;;;2.20;99.70;;;;;;4992172;28;20442;-70
2021/01/23 03:14:46;;;;;;;4.27;2.60;;;2.10;99.70;;;;;;4992192;28;20450;-69
2021/01/23 03:17:12;;;;;;;2.53;2.10;;;2.10;99.70;;;;;;4991472;28;20470;-68
2021/01/23 03:19:38;;;;;;;3.57;2.53;;;2.10;99.70;;;;;;4992062;28;20795;-69
2021/01/23 03:22:05;;;;;;;3.17;2.20;;;2.30;99.70;;;;;;4992000;28;20574;-69
2021/01/23 03:24:31;;;;;;;2.80;2.23;;;2.50;99.70;;;;;;4991663;28;20808;-70
2021/01/23 03:26:57;;;;;;;3.00;2.20;;;2.30;99.70;;;;;;4991322;28;20462;-69
2021/01/23 03:29:24;;;;;;;3.37;2.70;;;2.30;99.70;;;;;;4991230;28;20443;-69
2021/01/23 03:31:50;;;;;;;3.10;2.30;;;2.10;99.70;;;;;;4991610;28;20837;-69
2021/01/23 03:34:17;;;;;;;3.40;2.63;;;2.10;99.70;;;;;;4991373;28;20547;-71
2021/01/23 03:36:43;;;;;;;3.40;2.40;;;2.30;99.70;;;;;;4991172;28;20466;-72
2021/01/23 03:39:10;;;;;;;3.03;2.10;;;2.40;99.70;;;;;;4991128;28;20447;-70
2021/01/23 03:41:37;;;;;;;2.90;2.27;;;2.30;99.70;;;;;;4991569;28;20442;-71
2021/01/23 03:44:04;;;;;;;3.37;2.40;;;2.40;99.70;;;;;;4991156;28;20936;-68
2021/01/23 03:46:30;;;;;;;4.03;2.63;;;2.40;99.70;;;;;;4991154;28;20463;-70
2021/01/23 03:48:56;;;;;;;3.50;2.50;;;2.20;99.70;;;;;;4990654;28;20485;-71
2021/01/23 03:51:22;;;;;;;4.47;2.70;;;2.50;99.70;;;;;;4991199;28;20486;-70
2021/01/23 03:53:49;;;;;;;4.10;2.70;;;2.30;99.70;;;;;;4991055;28;20451;-69
2021/01/23 03:56:16;;;;;;;3.30;2.57;;;2.40;99.70;;;;;;4991280;28;20442;-69
2021/01/23 03:58:42;;;;;;;3.30;2.60;;;2.20;99.70;;;;;;4990883;28;20811;-70
2021/01/23 04:01:08;;;;;;;3.70;2.60;;;2.20;99.70;;;;;;4991665;28;20438;-69
2021/01/23 04:03:34;;;;;;;5.77;4.03;;;2.30;99.70;;;;;;4990446;28;20446;-71
2021/01/23 04:06:01;;;;;;;4.67;3.13;;;2.20;99.70;;;;;;4991010;28;20450;-69
2021/01/23 04:08:27;;;;;;;5.13;3.13;;;2.20;99.70;;;;;;4990832;28;20466;-68
2021/01/23 04:10:53;;;;;;;4.40;2.90;;;2.20;99.70;;;;;;4990943;28;20904;-69
2021/01/23 04:13:20;;;;;;;4.37;2.87;;;2.30;99.70;;;;;;4991213;28;20446;-69
2021/01/23 04:15:46;;;;;;;5.47;3.10;;;2.20;99.70;;;;;;4990924;28;20442;-69
2021/01/23 04:18:13;;;;;;;3.80;2.67;;;2.40;99.70;;;;;;4990518;28;20470;-69
2021/01/23 04:20:39;;;;;;;4.80;2.77;;;2.20;99.70;;;;;;4990867;28;20443;-69
2021/01/23 04:23:05;;;;;;;4.63;3.17;;;2.20;99.70;;;;;;4991178;28;20493;-69
2021/01/23 04:25:32;;;;;;;5.23;3.10;;;2.30;99.70;;;;;;4990660;28;20526;-70
2021/01/23 04:27:58;;;;;;;4.73;2.80;;;2.20;99.70;;;;;;4990396;28;20462;-69
2021/01/23 04:30:25;;;;;;;4.53;3.20;;;2.10;99.70;;;;;;4990809;28;20475;-69
2021/01/23 04:32:51;;;;;;;6.13;2.93;;;2.20;99.70;;;;;;4990824;28;20446;-69
2021/01/23 04:35:18;;;;;;;5.90;3.00;;;2.20;99.70;;;;;;4990742;28;20450;-69
2021/01/23 04:37:44;;;;;;;6.03;3.30;;;2.40;99.70;;;;;;4990064;28;20471;-69
2021/01/23 04:40:13;;;;;;;5.37;2.73;;;2.50;99.70;;;;;;4990614;28;20805;-70
2021/01/23 04:42:41;;;;;;;3.77;2.50;;;2.40;99.70;;;;;;4990409;28;20446;-69
2021/01/23 04:45:08;;;;;;;3.90;2.57;;;2.50;99.70;;;;;;4990333;28;21011;-69
2021/01/23 04:47:35;;;;;;;6.60;3.60;;;2.60;99.70;;;;;;4989543;28;20482;-71
2021/01/23 04:50:03;;;;;;;4.70;2.80;;;2.40;99.70;;;;;;4990183;28;20446;-69
2021/01/23 04:52:29;;;;;;;4.70;3.20;;;2.30;99.70;;;;;;4990114;28;20970;-72
2021/01/23 04:54:56;;;;;;;8.63;3.30;;;2.40;99.70;;;;;;4989746;28;20952;-69
2021/01/23 04:57:22;;;;;;;5.97;3.60;;;2.40;99.70;;;;;;4989718;28;20497;-69
2021/01/23 04:59:48;;;;;;;7.03;3.80;;;2.50;99.70;;;;;;4990256;28;20458;-69
2021/01/23 05:02:18;;;;;;;6.50;3.53;;;2.40;99.70;;;;;;4989342;28;20443;-69
2021/01/23 05:04:46;;;;;;;8.57;3.80;;;2.40;99.70;;;;;;4990071;28;21065;-69
2021/01/23 05:07:24;;;;;;;5.27;3.40;;;2.40;99.70;;;;;;4989742;28;21078;-70
2021/01/23 05:09:51;;;;;;;5.40;3.03;;;2.30;99.70;;;;;;4989970;28;20446;-69
2021/01/23 05:12:33;;;;;;;5.53;3.30;;;2.30;99.70;;;;;;4989989;28;20864;-70
2021/01/23 05:14:59;;;;;;;4.63;3.00;;;2.40;99.70;;;;;;4989987;28;20920;-70
2021/01/23 05:17:25;;;;;;;6.00;3.23;;;2.30;99.70;;;;;;4989736;28;20466;-71
2021/01/23 05:19:52;;;;;;;4.93;2.73;;;2.30;99.70;;;;;;4989988;28;20446;-71
2021/01/23 05:22:18;;;;;;;4.93;2.97;;;2.40;99.70;;;;;;4990043;28;20442;-69
2021/01/23 05:24:50;;;;;;;4.53;2.77;;;2.40;99.70;;;;;;4989871;28;20450;-69
2021/01/23 05:27:16;;;;;;;3.97;2.60;;;2.40;99.70;;;;;;4989586;28;20474;-69
2021/01/23 05:29:59;;;;;;;4.03;2.57;;;2.30;99.70;;;;;;4989703;28;20446;-70
2021/01/23 05:32:25;;;;;;;5.03;3.20;;;2.10;99.70;;;;;;4990205;28;20482;-68
2021/01/23 05:34:52;;;;;;;4.20;2.97;;;2.10;99.70;;;;;;4990009;28;20453;-68
2021/01/23 05:37:33;;;;;;;10.17;5.17;;;2.20;99.70;;;;;;4989908;28;20462;-70
2021/01/23 05:39:59;;;;;;;5.70;3.13;;;2.10;99.70;;;;;;4990124;28;20453;-68
2021/01/23 05:42:25;;;;;;;7.70;3.17;;;2.00;99.70;;;;;;4989858;28;20446;-69
2021/01/23 05:45:06;;;;;;;5.20;3.03;;;2.00;99.70;;;;;;4989766;28;20450;-71
2021/01/23 05:47:32;;;;;;;6.50;3.40;;;2.10;99.70;;;;;;4989212;28;21015;-70
2021/01/23 05:49:59;;;;;;;4.43;3.10;;;2.20;99.70;;;;;;4989667;28;20849;-70
2021/01/23 05:52:25;;;;;;;4.47;3.07;;;2.10;99.70;;;;;;4989591;28;21022;-68
2021/01/23 05:54:51;;;;;;;4.93;2.77;;;2.10;99.70;;;;;;4989694;28;20516;-69
2021/01/23 05:57:19;;;;;;;4.20;2.90;;;2.00;99.70;;;;;;4989229;28;20841;-69
2021/01/23 05:59:45;;;;;;;5.30;3.10;;;2.10;99.70;;;;;;4989811;28;20458;-68
2021/01/23 06:02:13;;;;;;;3.67;2.70;;;2.10;99.70;;;;;;4988827;28;20504;-70
2021/01/23 06:04:42;;;;;;;3.63;2.63;;;2.10;99.70;;;;;;4989659;28;20517;-69
2021/01/23 06:07:09;;;;;;;7.10;3.10;;;2.00;99.70;;;;;;4989821;28;20481;-68
2021/01/23 06:09:37;;;;;;;5.67;3.40;;;2.00;99.70;;;;;;4993296;28;20446;-69
2021/01/23 06:12:04;;;;;;;5.23;3.00;;;1.90;99.70;;;;;;4993084;28;20478;-68
2021/01/23 06:14:35;;;;;;;4.50;2.93;;;1.90;99.70;;;;;;4993461;28;20446;-69
2021/01/23 06:17:01;;;;;;;5.30;2.90;;;1.90;99.70;;;;;;4992536;28;21030;-70
2021/01/23 06:19:42;;;;;;;3.63;2.70;;;2.00;99.70;;;;;;4993069;28;20509;-69
2021/01/23 06:22:10;;;;;;;4.87;3.00;;;2.00;99.70;;;;;;4992812;28;20442;-70
2021/01/23 06:24:56;;;;;;;4.30;2.80;;;2.00;99.70;;;;;;4992900;28;20450;-70
2021/01/23 06:27:46;;;;;;;4.83;2.60;;;2.00;99.70;;;;;;4991928;28;20897;-70
2021/01/23 06:30:27;;;;;;;5.37;2.70;;;1.90;99.70;;;;;;4992826;28;20455;-69
2021/01/23 06:32:54;;;;;;;4.50;3.00;;;1.80;99.70;;;;;;4992575;28;20783;-68
2021/01/23 06:35:20;;;;;;;5.17;3.67;;;1.80;99.70;;;;;;4992826;28;20893;-70
2021/01/23 06:37:47;;;;;;;5.73;3.60;;;1.70;99.70;;;;;;4992024;28;20498;-70
2021/01/23 06:40:15;;;;;;;5.57;3.30;;;1.90;99.70;;;;;;4992706;28;20454;-68
2021/01/23 06:42:43;;;;;;;4.53;3.00;;;1.90;99.70;;;;;;4992368;28;20442;-69
2021/01/23 06:45:15;;;;;;;4.57;2.80;;;1.80;99.70;;;;;;4992682;28;20873;-68
2021/01/23 06:47:42;;;;;;;5.17;3.40;;;1.80;99.70;;;;;;4991833;28;20854;-68
2021/01/23 06:50:10;;;;;;;4.83;3.40;;;1.90;99.70;;;;;;4992636;28;20836;-71
2021/01/23 06:52:50;;;;;;;6.40;3.57;;;1.90;99.70;;;;;;4991913;28;20536;-69
2021/01/23 06:55:37;;;;;;;6.37;4.13;;;1.90;99.70;;;;;;4992222;28;20821;-69
2021/01/23 06:58:03;;;;;;;6.73;3.77;;;2.00;99.70;;;;;;4991892;28;20533;-68
2021/01/23 07:00:35;;;;;;;8.03;3.87;;;1.90;99.70;;;;;;4995202;28;20469;-67
2021/01/23 07:03:07;;;;;;;6.33;3.77;;;1.90;99.70;;;;;;5005303;23;20525;-68
2021/01/23 07:05:33;;;;;;;9.03;4.57;;;1.80;99.70;;;;;;4971060;28;20546;-69
2021/01/23 07:08:00;;;;;;;8.43;5.07;;;1.80;99.70;;;;;;4970895;28;20451;-70
2021/01/23 07:10:27;;;;;;;6.47;4.00;;;1.70;99.70;;;;;;4971327;28;20482;-70
2021/01/23 07:12:54;;;;;;;6.63;3.83;;;1.80;99.70;;;;;;4971531;28;20494;-70
2021/01/23 07:15:35;;;;;;;6.73;4.10;;;1.70;99.70;;;;;;4971221;28;20860;-65
2021/01/23 07:18:12;;;;;;;8.80;4.27;;;1.70;99.70;;;;;;4970376;28;20455;-70
2021/01/23 07:20:39;;;;;;;6.67;4.00;;;1.70;99.70;;;;;;4971106;28;20471;-70
2021/01/23 07:23:06;;;;;;;7.23;4.27;;;1.70;99.70;;;;;;4970998;28;20526;-68
2021/01/23 07:25:33;;;;;;;7.60;4.07;;;1.70;99.70;;;;;;4971769;28;20837;-69
2021/01/23 07:27:59;;;;;;;8.83;4.57;;;1.80;99.70;;;;;;4970061;28;20451;-70
2021/01/23 07:30:26;;;;;;;12.13;5.13;;;1.90;99.70;;;;;;4971296;28;20447;-71
2021/01/23 07:32:53;;;;;;;8.30;4.50;;;1.90;99.70;;;;;;4970916;28;20941;-69
2021/01/23 07:35:19;;;;;;;7.97;4.00;;;2.00;99.70;;;;;;4971342;28;20463;-69
2021/01/23 07:37:48;;;;;;;8.73;4.63;;;2.00;99.70;;;;;;4970139;28;20447;-69
2021/01/23 07:40:16;;;;;;;7.10;4.13;;;2.10;99.70;;;;;;4971323;28;20669;-68
2021/01/23 07:42:43;;;;;;;6.37;3.83;;;2.00;99.70;;;;;;4970604;28;20475;-66
2021/01/23 07:45:12;;;;;;;7.77;4.00;;;1.90;99.70;;;;;;4971181;28;20455;-68
2021/01/23 07:47:39;;;;;;;6.73;3.77;;;1.90;99.70;;;;;;4970151;28;20961;-68
2021/01/23 07:50:08;;;;;;;6.23;3.50;;;2.00;99.70;;;;;;4970579;28;20829;-68
2021/01/23 07:52:35;;;;;;;5.30;3.60;;;1.90;99.70;;;;;;4971030;28;20487;-69
2021/01/23 07:55:02;;;;;;;6.63;4.00;;;1.90;99.70;;;;;;4970546;28;20824;-67
2021/01/23 07:57:29;;;;;;;6.73;3.60;;;1.90;99.70;;;;;;4970097;28;20447;-69
2021/01/23 07:59:56;;;;;;;10.43;4.20;;;1.90;99.70;;;;;;4970744;28;20451;-65
2021/01/23 08:02:22;;;;;;;6.37;4.13;;;1.90;99.70;;;;;;4968963;28;21612;-70
2021/01/23 08:04:49;;;;;;;7.47;4.03;;;1.90;99.70;;;;;;4970436;28;20566;-70
2021/01/23 08:07:24;;;;;;;9.40;4.47;;;2.00;99.70;;;;;;4969963;28;20875;-68
2021/01/23 08:10:11;;;;;;;8.63;4.90;;;1.90;99.70;;;;;;4970604;28;20517;-70
2021/01/23 08:12:39;;;;;;;12.03;5.40;;;2.10;99.70;;;;;;4970649;28;20549;-67
2021/01/23 08:15:07;;;;;;;8.27;4.60;;;2.10;99.70;;;;;;4970404;28;20957;-69
2021/01/23 08:17:39;;;;;;;8.30;4.43;;;2.10;99.70;;;;;;4969270;28;20455;-68
2021/01/23 08:20:07;;;;;;;8.30;4.67;;;2.10;99.70;;;;;;4971167;28;20436;-70
2021/01/23 08:22:33;;;;;;;12.50;4.63;;;2.10;99.70;;;;;;4970725;28;20476;-69
2021/01/23 08:24:59;;;;;;;7.97;4.40;;;2.20;99.70;;;;;;4970968;28;20510;-69
2021/01/23 08:27:28;;;;;;;7.97;4.33;;;2.20;99.70;;;;;;4969071;28;20463;-70
2021/01/23 08:29:55;;;;;;;9.30;4.63;;;2.20;99.70;;;;;;4967398;28;20844;-68
2021/01/23 08:32:21;;;;;;;9.13;4.70;;;2.10;99.70;;;;;;4968859;28;20490;-69
2021/01/23 08:34:47;;;;;;;8.10;4.80;;;2.10;99.70;;;;;;4970830;28;20458;-69
2021/01/23 08:37:14;;;;;;;7.83;4.37;;;2.10;99.70;;;;;;4969614;28;20451;-69
2021/01/23 08:39:44;;;;;;;7.67;4.53;;;2.20;99.70;;;;;;4970896;28;20451;-68
2021/01/23 08:42:11;;;;;;;7.87;4.20;;;2.30;99.70;;;;;;4969090;28;20463;-69
2021/01/23 08:44:37;;;;;;;9.27;4.80;;;2.30;99.70;;;;;;4969682;28;20454;-69
2021/01/23 08:47:05;;;;;;;7.90;4.30;;;2.30;99.70;;;;;;4969298;28;20459;-70
2021/01/23 08:49:32;;;;;;;7.50;4.23;;;2.50;99.70;;;;;;4969198;28;20743;-70
2021/01/23 08:51:58;;;;;;;10.30;4.50;;;2.40;99.70;;;;;;4969978;28;20567;-69
2021/01/23 08:54:24;;;;;;;9.27;4.50;;;2.40;99.70;;;;;;4969336;28;20447;-69
2021/01/23 08:56:51;;;;;;;7.83;4.10;;;2.40;99.70;;;;;;4969646;28;20452;-69
2021/01/23 08:59:17;;;;;;;8.97;4.40;;;2.50;99.70;;;;;;4969894;28;20506;-69
2021/01/23 09:01:43;;;;;;;10.00;5.10;;;2.50;99.70;;;;;;4968449;28;20945;-67
2021/01/23 09:04:11;;;;;;;9.73;4.70;;;2.40;99.70;;;;;;4970352;28;20451;-67
2021/01/23 09:06:37;;;;;;;9.50;4.63;;;2.40;99.70;;;;;;4970191;28;20454;-67
2021/01/23 09:09:05;;;;;;;9.10;4.50;;;2.50;99.70;;;;;;4969871;28;20455;-68
2021/01/23 09:11:31;;;;;;;7.17;3.93;;;2.50;99.70;;;;;;4969785;28;20479;-68
2021/01/23 09:13:58;;;;;;;8.07;4.23;;;2.60;99.70;;;;;;4970089;28;20558;-68
2021/01/23 09:16:24;;;;;;;6.73;4.07;;;2.60;99.70;;;;;;4969935;28;20901;-69
2021/01/23 09:18:50;;;;;;;9.73;4.40;;;2.70;99.70;;;;;;4969188;28;20458;-70
2021/01/23 09:21:17;;;;;;;10.03;4.50;;;2.70;99.70;;;;;;4969702;28;20704;-71
2021/01/23 09:23:43;;;;;;;8.67;4.57;;;2.70;99.70;;;;;;4969833;28;20513;-67
2021/01/23 09:26:09;;;;;;;9.73;4.80;;;2.70;99.70;;;;;;4961964;28;20458;-69
2021/01/23 09:28:36;;;;;;;9.97;4.83;;;2.70;99.70;;;;;;4969567;28;20535;-68
2021/01/23 09:31:02;;;;;;;9.53;5.20;;;2.70;99.70;;;;;;4970437;28;20915;-69
2021/01/23 09:33:28;;;;;;;8.60;5.00;;;2.90;99.70;;;;;;4969986;28;20526;-68
2021/01/23 09:35:55;;;;;;;8.23;4.50;;;2.90;99.70;;;;;;4970445;28;20963;-69
2021/01/23 09:38:22;;;;;;;7.37;4.20;;;3.10;99.70;;;;;;4969285;28;20455;-69
2021/01/23 09:40:48;;;;;;;9.20;4.90;;;3.00;99.70;;;;;;4971177;28;20815;-69
2021/01/23 09:43:15;;;;;;;8.53;4.93;;;3.00;99.70;;;;;;4974539;28;20471;-68
2021/01/23 09:45:41;;;;;;;8.40;5.00;;;3.00;99.70;;;;;;4973894;28;20884;-71
2021/01/23 09:48:08;;;;;;;11.00;5.20;;;3.20;99.70;;;;;;4973657;28;20474;-67
2021/01/23 09:50:34;;;;;;;8.33;5.20;;;3.10;99.70;;;;;;4973672;28;20454;-68
2021/01/23 09:53:00;;;;;;;8.57;5.30;;;3.20;99.70;;;;;;4974167;28;20474;-67
2021/01/23 09:55:27;;;;;;;10.57;5.23;;;3.20;99.70;;;;;;4973653;28;20446;-68
2021/01/23 09:57:53;;;;;;;11.17;5.73;;;3.20;99.70;;;;;;4973564;28;20455;-67
2021/01/23 10:00:20;;;;;;;7.80;5.20;;;3.40;99.70;;;;;;4974167;28;20443;-68
2021/01/23 10:02:47;;;;;;;9.53;5.10;;;3.50;99.70;;;;;;4972740;28;20479;-69
2021/01/23 10:05:14;;;;;;;7.13;4.80;;;3.50;99.70;;;;;;4973702;28;20451;-69
2021/01/23 10:07:40;;;;;;;12.07;6.20;;;3.50;99.70;;;;;;4972917;28;20447;-69
2021/01/23 10:10:09;;;;;;;10.90;6.13;;;3.30;99.70;;;;;;4973614;28;20459;-69
2021/01/23 10:12:36;;;;;;;17.00;5.13;;;3.30;99.70;;;;;;4973150;28;20811;-69
2021/01/23 10:15:03;;;;;;;9.37;5.30;;;3.40;99.70;;;;;;4973518;28;20455;-69
2021/01/23 10:17:29;;;;;;;8.53;5.00;;;3.50;99.70;;;;;;4972949;28;20826;-70
2021/01/23 10:19:55;;;;;;;7.83;5.20;;;3.50;99.70;;;;;;4973249;28;20451;-69
2021/01/23 10:22:22;;;;;;;8.27;4.60;;;3.60;99.70;;;;;;4973420;28;21156;-68
2021/01/23 10:24:48;;;;;;;8.37;4.90;;;3.60;99.70;;;;;;4973157;28;20447;-70
2021/01/23 10:27:14;;;;;;;10.27;5.17;;;3.60;99.70;;;;;;4973169;28;20455;-70
2021/01/23 10:29:41;;;;;;;6.80;4.30;;;3.60;99.70;;;;;;4972877;28;20447;-69
2021/01/23 10:32:07;;;;;;;9.37;4.80;;;3.70;99.70;;;;;;4973374;28;20526;-68
2021/01/23 10:34:33;;;;;;;8.43;5.13;;;3.70;99.70;;;;;;4972991;28;20451;-69
2021/01/23 10:37:00;;;;;;;9.10;5.03;;;3.70;99.70;;;;;;4973026;28;20439;-68
2021/01/23 10:39:26;;;;;;;7.60;4.00;;;3.70;99.70;;;;;;4973106;28;20458;-68
2021/01/23 10:41:52;;;;;;;8.37;4.47;;;3.80;99.70;;;;;;4972667;28;20979;-70
2021/01/23 10:44:18;;;;;;;7.17;4.20;;;4.10;99.70;;;;;;4973071;28;20451;-68
2021/01/23 10:46:45;;;;;;;7.23;4.37;;;4.00;99.70;;;;;;4972387;28;20455;-69
2021/01/23 10:49:12;;;;;;;6.90;4.00;;;4.00;99.70;;;;;;4971918;28;20542;-70
2021/01/23 10:51:38;;;;;;;8.47;4.60;;;3.90;99.70;;;;;;4971701;28;20511;-69
2021/01/23 10:54:04;;;;;;;6.70;3.80;;;3.90;99.70;;;;;;4970990;28;20443;-69
2021/01/23 10:56:32;;;;;;;8.70;3.90;;;4.00;99.70;;;;;;4971269;28;20454;-70
2021/01/23 10:59:01;;;;;;;8.00;4.50;;;4.10;99.70;;;;;;4978894;28;20451;-68
2021/01/23 11:01:28;;;;;;;5.00;3.87;;;4.30;99.70;;;;;;4972153;28;20443;-69
2021/01/23 11:03:55;;;;;;;6.80;4.10;;;4.30;99.70;;;;;;4970294;28;20586;-70
2021/01/23 11:06:22;;;;;;;7.20;4.10;;;4.40;99.70;;;;;;4973808;28;20451;-69
2021/01/23 11:08:48;;;;;;;8.60;4.90;;;4.30;99.70;;;;;;4969347;28;20462;-69
2021/01/23 11:11:14;;;;;;;5.87;4.03;;;4.30;99.70;;;;;;4972946;28;20862;-67
2021/01/23 11:13:41;;;;;;;9.70;4.63;;;4.40;99.70;;;;;;4971001;28;20459;-68
2021/01/23 11:16:07;;;;;;;12.57;5.47;;;4.30;99.70;;;;;;4965936;28;20482;-69
2021/01/23 11:18:34;;;;;;;9.60;5.10;;;4.40;99.70;;;;;;4971726;28;20439;-69
2021/01/23 11:21:01;;;;;;;9.27;4.70;;;4.40;99.70;;;;;;4968945;28;20958;-68
2021/01/23 11:23:27;;;;;;;8.00;4.70;;;4.30;99.70;;;;;;4971568;28;20839;-69
2021/01/23 11:25:54;;;;;;;7.73;4.67;;;4.30;99.70;;;;;;4980442;28;20469;-69
2021/01/23 11:28:20;;;;;;;7.90;4.80;;;4.40;99.70;;;;;;4991044;28;21069;-68
2021/01/23 11:30:46;;;;;;;7.77;5.33;;;4.40;99.70;;;;;;4983006;28;20447;-70
2021/01/23 11:33:13;;;;;;;9.93;4.97;;;4.40;99.70;;;;;;4970997;28;20471;-68
2021/01/23 11:35:39;;;;;;;8.03;4.60;;;4.40;99.70;;;;;;4977132;28;20963;-68
2021/01/23 11:38:06;;;;;;;9.97;5.53;;;4.50;99.70;;;;;;4990576;28;20628;-69
2021/01/23 11:40:32;;;;;;;8.03;5.07;;;4.40;99.70;;;;;;4985820;28;20451;-70
2021/01/23 11:42:59;;;;;;;17.53;6.40;;;4.40;99.70;;;;;;4971388;28;20467;-69
2021/01/23 11:45:25;;;;;;;10.47;5.77;;;4.60;99.70;;;;;;4974247;28;20828;-70
2021/01/23 11:47:51;;;;;;;9.90;5.00;;;4.60;99.70;;;;;;4990986;28;20446;-69
2021/01/23 11:50:17;;;;;;;11.70;5.90;;;4.60;99.70;;;;;;4988950;28;20450;-68
2021/01/23 11:52:43;;;;;;;8.07;5.13;;;4.60;99.70;;;;;;4990796;28;20494;-68
2021/01/23 11:55:11;;;;;;;8.10;5.33;;;4.70;99.70;;;;;;4990419;28;20538;-69
2021/01/23 11:57:37;;;;;;;14.03;5.07;;;4.50;99.70;;;;;;4990802;28;20442;-68
2021/01/23 12:00:05;;;;;;;7.37;4.97;;;4.70;99.70;;;;;;4991253;28;20461;-67
2021/01/23 12:02:31;;;;;;;9.37;5.30;;;4.70;99.70;;;;;;4971322;28;20467;-68
2021/01/23 12:04:57;;;;;;;7.13;4.30;;;4.60;99.70;;;;;;4970693;28;20454;-67
2021/01/23 12:07:23;;;;;;;7.27;4.33;;;4.60;99.70;;;;;;4970252;28;20506;-68
2021/01/23 12:09:50;;;;;;;9.13;4.50;;;4.60;99.70;;;;;;4971540;28;20455;-69
2021/01/23 12:12:17;;;;;;;9.50;4.87;;;4.60;99.70;;;;;;4971720;28;20666;-68
2021/01/23 12:14:43;;;;;;;6.83;4.00;;;4.80;99.70;;;;;;4971177;28;20451;-70
2021/01/23 12:17:10;;;;;;;6.20;4.20;;;4.90;99.70;;;;;;4982513;28;20446;-69
2021/01/23 12:19:36;;;;;;;8.20;4.70;;;5.00;99.70;;;;;;4988567;28;20537;-69
2021/01/23 12:22:03;;;;;;;7.50;4.40;;;5.00;99.70;;;;;;4990374;28;20476;-68
2021/01/23 12:24:31;;;;;;;6.73;3.63;;;5.10;99.70;;;;;;4982796;28;20495;-69
2021/01/23 12:26:58;;;;;;;6.40;3.90;;;5.00;99.70;;;;;;4969391;28;20479;-68
2021/01/23 12:29:25;;;;;;;8.53;4.60;;;5.10;99.70;;;;;;4964156;28;20538;-68
2021/01/23 12:31:51;;;;;;;8.60;4.47;;;4.90;99.70;;;;;;4971654;28;21063;-69
2021/01/23 12:34:18;;;;;;;12.13;4.10;;;4.70;99.70;;;;;;4969792;28;20825;-69
2021/01/23 12:36:44;;;;;;;7.13;3.67;;;4.90;99.70;;;;;;4971306;28;20452;-69
2021/01/23 12:39:10;;;;;;;6.33;3.97;;;4.70;99.70;;;;;;4970256;28;20867;-68
2021/01/23 12:41:36;;;;;;;10.53;4.27;;;4.80;99.70;;;;;;4971206;28;20447;-69
2021/01/23 12:44:03;;;;;;;7.30;4.20;;;4.80;99.70;;;;;;4966989;28;20994;-69
2021/01/23 12:46:30;;;;;;;6.10;4.00;;;4.90;99.70;;;;;;4964367;28;20526;-67
2021/01/23 12:48:57;;;;;;;6.73;3.90;;;5.10;99.70;;;;;;4968599;28;20531;-68
2021/01/23 12:51:23;;;;;;;7.50;3.80;;;5.10;99.70;;;;;;4969162;28;20479;-68
2021/01/23 12:53:50;;;;;;;7.37;4.23;;;5.00;99.70;;;;;;4967533;28;20463;-68
2021/01/23 12:56:16;;;;;;;6.43;3.67;;;5.10;99.70;;;;;;4972419;28;20449;-68
2021/01/23 12:58:42;;;;;;;8.43;4.00;;;5.10;99.70;;;;;;4968983;28;20451;-67